createdAt,value
2024-01-20T00:01:48.105Z,3.99
2024-01-20T00:04:15.183Z,3.48
2024-01-20T00:06:44.656Z,3.33
2024-01-20T00:09:12.875Z,3.44
2024-01-20T00:11:40.527Z,3.52
2024-01-20T00:14:07.661Z,3.25
2024-01-20T00:16:34.866Z,3.17
2024-01-20T00:19:01.978Z,3.64
2024-01-20T00:21:29.988Z,3.69
2024-01-20T00:23:57.318Z,3.26
2024-01-20T00:26:24.485Z,3.28
2024-01-20T00:28:51.846Z,3.58
2024-01-20T00:31:19.194Z,3.65
2024-01-20T00:33:46.288Z,3.35
2024-01-20T00:36:13.682Z,3.23
2024-01-20T00:38:40.711Z,3.36
2024-01-20T00:41:07.821Z,3.58
2024-01-20T00:43:35.035Z,3.44
2024-01-20T00:46:02.498Z,3.29
2024-01-20T00:48:29.590Z,3.38
2024-01-20T00:50:56.606Z,3.76
2024-01-20T00:53:23.630Z,3.22
2024-01-20T00:55:50.755Z,3.20
2024-01-20T00:58:17.797Z,3.39
2024-01-20T01:00:44.885Z,3.56
2024-01-20T01:03:11.991Z,3.47
2024-01-20T01:05:39.073Z,3.44
2024-01-20T01:08:06.272Z,3.35
2024-01-20T01:10:33.353Z,3.49
2024-01-20T01:13:00.709Z,3.28
2024-01-20T01:15:27.911Z,3.21
2024-01-20T01:17:54.918Z,3.15
2024-01-20T01:20:22.053Z,3.52
2024-01-20T01:22:49.048Z,3.52
2024-01-20T01:25:16.097Z,3.13
2024-01-20T01:27:43.173Z,2.96
2024-01-20T01:30:11.188Z,3.38
2024-01-20T01:32:38.296Z,3.24
2024-01-20T01:35:05.673Z,3.33
2024-01-20T01:37:32.813Z,3.08
2024-01-20T01:39:59.751Z,3.19
2024-01-20T01:42:26.820Z,3.29
2024-01-20T01:44:53.898Z,3.21
2024-01-20T01:47:21.055Z,3.10
2024-01-20T01:49:48.096Z,3.31
2024-01-20T01:52:15.771Z,3.49
2024-01-20T01:54:42.874Z,3.39
2024-01-20T01:57:09.973Z,3.23
2024-01-20T01:59:37.136Z,3.12
2024-01-20T02:02:04.125Z,3.14
2024-01-20T02:04:31.116Z,3.10
2024-01-20T02:06:58.362Z,2.91
2024-01-20T02:09:26.056Z,2.97
2024-01-20T02:11:54.120Z,3.06
2024-01-20T02:14:25.082Z,2.93
2024-01-20T02:16:52.263Z,2.92
2024-01-20T02:19:19.342Z,2.83
2024-01-20T02:21:47.170Z,2.91
2024-01-20T02:24:14.462Z,2.50
2024-01-20T02:26:41.533Z,2.52
2024-01-20T02:29:08.621Z,2.30
2024-01-20T02:31:35.714Z,2.58
2024-01-20T02:34:02.947Z,2.40
2024-01-20T02:36:30.037Z,2.24
2024-01-20T02:38:57.055Z,2.27
2024-01-20T02:41:24.536Z,2.34
2024-01-20T02:43:51.563Z,2.02
2024-01-20T02:46:18.596Z,2.08
2024-01-20T02:48:45.766Z,2.09
2024-01-20T02:51:13.123Z,2.34
2024-01-20T02:53:40.222Z,2.17
2024-01-20T02:56:07.269Z,2.09
2024-01-20T02:58:34.286Z,2.13
2024-01-20T03:01:01.312Z,2.26
2024-01-20T03:03:28.503Z,2.17
2024-01-20T03:05:55.588Z,2.01
2024-01-20T03:08:22.672Z,1.92
2024-01-20T03:10:49.730Z,2.14
2024-01-20T03:13:16.779Z,2.08
2024-01-20T03:15:44.168Z,1.97
2024-01-20T03:18:13.031Z,1.91
2024-01-20T03:20:40.486Z,2.27
2024-01-20T03:23:08.175Z,2.22
2024-01-20T03:25:35.284Z,2.00
2024-01-20T03:28:02.300Z,1.81
2024-01-20T03:30:29.363Z,2.24
2024-01-20T03:32:57.182Z,2.19
2024-01-20T03:35:24.229Z,1.76
2024-01-20T03:37:51.189Z,1.65
2024-01-20T03:40:18.286Z,1.91
2024-01-20T03:42:46.468Z,2.03
2024-01-20T03:45:13.767Z,1.76
2024-01-20T03:47:40.976Z,1.68
2024-01-20T03:50:08.854Z,1.84
2024-01-20T03:52:36.094Z,2.09
2024-01-20T03:55:04.199Z,1.91
2024-01-20T03:57:31.630Z,1.80
2024-01-20T03:59:59.384Z,1.79
2024-01-20T04:02:26.763Z,2.03
2024-01-20T04:04:54.199Z,1.86
2024-01-20T04:07:21.447Z,1.84
2024-01-20T04:09:49.010Z,1.85
2024-01-20T04:12:15.985Z,2.08
2024-01-20T04:14:43.965Z,1.84
2024-01-20T04:17:11.882Z,1.76
2024-01-20T04:19:39.700Z,1.86
2024-01-20T04:22:06.883Z,2.13
2024-01-20T04:24:33.936Z,1.98
2024-01-20T04:27:01.410Z,1.99
2024-01-20T04:29:28.386Z,1.79
2024-01-20T04:31:55.419Z,2.00
2024-01-20T04:34:22.499Z,2.01
2024-01-20T04:36:49.555Z,1.91
2024-01-20T04:39:16.656Z,1.90
2024-01-20T04:41:43.645Z,1.94
2024-01-20T04:44:10.736Z,1.83
2024-01-20T04:46:37.844Z,1.83
2024-01-20T04:49:04.929Z,1.85
2024-01-20T04:51:32.055Z,1.96
2024-01-20T04:53:59.762Z,1.86
2024-01-20T04:56:26.754Z,1.86
2024-01-20T04:58:53.844Z,1.75
2024-01-20T05:01:20.878Z,1.83
2024-01-20T05:03:48.252Z,1.82
2024-01-20T05:06:15.371Z,1.81
2024-01-20T05:08:42.455Z,5.92
2024-01-20T05:11:09.432Z,7.29
2024-01-20T05:13:36.462Z,7.73
2024-01-20T05:16:03.546Z,8.61
2024-01-20T05:18:30.678Z,7.90
2024-01-20T05:20:58.188Z,8.59
2024-01-20T05:23:25.548Z,8.37
2024-01-20T05:25:52.639Z,7.54
2024-01-20T05:28:19.931Z,4.58
2024-01-20T05:30:46.979Z,3.63
2024-01-20T05:33:14.168Z,3.08
2024-01-20T05:35:41.179Z,2.64
2024-01-20T05:38:08.227Z,2.54
2024-01-20T05:40:35.379Z,2.45
2024-01-20T05:43:03.185Z,2.35
2024-01-20T05:45:30.294Z,2.39
2024-01-20T05:47:57.487Z,2.03
2024-01-20T05:50:24.634Z,1.88
2024-01-20T05:52:51.728Z,1.96
2024-01-20T05:55:19.530Z,1.93
2024-01-20T05:57:46.630Z,1.94
2024-01-20T06:00:14.188Z,2.09
2024-01-20T06:02:42.325Z,1.96
2024-01-20T06:05:09.941Z,1.99
2024-01-20T06:07:45.150Z,2.08
2024-01-20T06:10:12.996Z,2.07
2024-01-20T06:12:41.605Z,1.95
2024-01-20T06:15:16.018Z,1.70
2024-01-20T06:17:43.895Z,1.69
2024-01-20T06:20:11.553Z,1.85
2024-01-20T06:22:43.854Z,1.26
2024-01-20T06:25:12.098Z,1.21
2024-01-20T06:27:41.401Z,1.09
2024-01-20T06:30:09.013Z,1.16
2024-01-20T06:32:55.539Z,1.02
2024-01-20T06:35:22.971Z,0.84
2024-01-20T06:38:07.903Z,0.84
2024-01-20T06:40:52.746Z,0.54
2024-01-20T06:43:37.698Z,0.70
2024-01-20T06:46:22.705Z,0.79
2024-01-20T06:48:50.651Z,0.75
2024-01-20T06:51:18.169Z,0.64
2024-01-20T06:53:45.298Z,0.68
2024-01-20T06:56:12.373Z,0.59
2024-01-20T06:58:39.421Z,0.23
2024-01-20T07:01:06.428Z,0.25
2024-01-20T07:03:33.554Z,0.34
2024-01-20T07:06:00.744Z,0.49
2024-01-20T07:08:27.870Z,0.36
2024-01-20T07:10:54.895Z,0.28
2024-01-20T07:13:21.934Z,0.27
2024-01-20T07:15:49.061Z,0.55
2024-01-20T07:18:16.250Z,0.22
2024-01-20T07:20:44.756Z,0.08
2024-01-20T07:23:12.018Z,0.17
2024-01-20T07:25:39.058Z,0.33
2024-01-20T07:28:06.122Z,0.09
2024-01-20T07:30:33.269Z,0.15
2024-01-20T07:33:00.477Z,-0.05
2024-01-20T07:35:27.746Z,0.10
2024-01-20T07:37:54.782Z,0.25
2024-01-20T07:40:39.679Z,-0.06
2024-01-20T07:43:06.730Z,0.05
2024-01-20T07:45:34.219Z,0.04
2024-01-20T07:48:59.901Z,-142.33
2024-01-20T07:52:25.637Z,-142.33
2024-01-20T07:55:51.235Z,-142.33
2024-01-20T07:59:16.773Z,-142.33
2024-01-20T08:02:42.295Z,-142.33
2024-01-20T08:06:07.859Z,-142.33
2024-01-20T08:09:33.519Z,-142.33
2024-01-20T08:12:59.088Z,-142.33
2024-01-20T08:16:24.617Z,-142.33
2024-01-20T08:19:50.432Z,-142.33
2024-01-20T08:23:16.139Z,-142.33
2024-01-20T08:26:41.950Z,-142.33
2024-01-20T08:30:07.907Z,-142.33
2024-01-20T08:33:33.693Z,-142.33
2024-01-20T08:36:59.517Z,-142.33
2024-01-20T08:40:25.252Z,-142.33
2024-01-20T08:43:50.843Z,-142.33
2024-01-20T08:47:16.454Z,-142.33
2024-01-20T08:50:42.037Z,-142.33
2024-01-20T08:54:07.621Z,-142.33
2024-01-20T08:57:33.221Z,-142.33
2024-01-20T09:00:58.932Z,-142.33
2024-01-20T09:04:24.642Z,-142.33
2024-01-20T09:07:50.245Z,-142.33
2024-01-20T09:11:15.880Z,-142.33
2024-01-20T09:14:41.430Z,-142.33
2024-01-20T09:18:10.044Z,-142.33
2024-01-20T09:21:35.795Z,-142.33
2024-01-20T09:25:01.585Z,-142.33
2024-01-20T09:28:27.218Z,-142.33
2024-01-20T09:31:52.769Z,-142.33
2024-01-20T09:35:18.322Z,-142.33
2024-01-20T09:38:43.968Z,-142.33
2024-01-20T09:42:09.805Z,-142.33
2024-01-20T09:45:36.127Z,-142.33
2024-01-20T09:49:02.026Z,-142.33
2024-01-20T09:52:28.707Z,-142.33
2024-01-20T09:55:55.289Z,-142.33
2024-01-20T09:59:21.796Z,-142.33
2024-01-20T10:02:47.964Z,-142.33
2024-01-20T10:06:13.639Z,-142.33
2024-01-20T10:09:39.303Z,-142.33
2024-01-20T10:13:04.711Z,-142.33
2024-01-20T10:16:37.471Z,-142.33
2024-01-20T10:20:03.411Z,-142.33
2024-01-20T10:23:29.223Z,-142.33
2024-01-20T10:26:54.795Z,-142.33
2024-01-20T10:30:21.727Z,-142.33
2024-01-20T10:33:49.283Z,-142.33
2024-01-20T10:37:16.178Z,-142.33
2024-01-20T10:40:43.237Z,-142.33
2024-01-20T10:44:11.757Z,-142.33
2024-01-20T10:47:38.174Z,-142.33
2024-01-20T10:51:08.233Z,-142.33
2024-01-20T10:54:34.212Z,-142.33
2024-01-20T10:58:00.495Z,-142.33
2024-01-20T11:01:26.309Z,-142.33
2024-01-20T11:04:51.790Z,-142.33
2024-01-20T11:08:23.427Z,-142.33
2024-01-20T11:12:00.554Z,-142.33
2024-01-20T11:15:29.286Z,-142.33
2024-01-20T11:19:04.931Z,-142.33
2024-01-20T11:22:30.707Z,-142.33
2024-01-20T11:25:03.678Z,-142.33
2024-01-20T11:27:30.968Z,-142.33
2024-01-20T11:30:04.655Z,-142.33
2024-01-20T11:32:31.975Z,-142.33
2024-01-20T11:34:59.271Z,-142.33
2024-01-20T11:37:28.167Z,-142.33
2024-01-20T11:40:05.326Z,-142.33
2024-01-20T11:42:32.425Z,-142.33
2024-01-20T11:44:59.571Z,-142.33
2024-01-20T11:47:26.624Z,-142.33
2024-01-20T11:49:54.333Z,-142.33
2024-01-20T11:52:22.169Z,-142.33
2024-01-20T11:54:49.647Z,-142.33
2024-01-20T11:57:26.913Z,-142.33
2024-01-20T11:59:54.626Z,-142.33
2024-01-20T12:02:22.029Z,-142.33
2024-01-20T12:04:49.583Z,-142.33
2024-01-20T12:07:17.825Z,-142.33
2024-01-20T12:09:45.835Z,-142.33
2024-01-20T12:12:13.091Z,-142.33
2024-01-20T12:14:43.760Z,-142.33
2024-01-20T12:17:11.229Z,-142.33
2024-01-20T12:19:38.820Z,-142.33
2024-01-20T12:22:12.467Z,-142.33
2024-01-20T12:24:45.734Z,-142.33
2024-01-20T12:27:12.986Z,-142.33
2024-01-20T12:29:40.129Z,-142.33
2024-01-20T12:32:07.393Z,-142.33
2024-01-20T12:34:34.580Z,-142.33
2024-01-20T12:37:01.709Z,-142.33
2024-01-20T12:39:28.981Z,-142.33
2024-01-20T12:41:56.204Z,-142.33
2024-01-20T12:44:23.467Z,-142.33
2024-01-20T12:46:50.566Z,-142.33
2024-01-20T12:49:17.754Z,-142.33
2024-01-20T12:51:44.978Z,-142.33
2024-01-20T12:54:12.412Z,-142.33
2024-01-20T12:56:39.602Z,-142.33
2024-01-20T12:59:06.747Z,-142.33
2024-01-20T13:01:33.928Z,-142.33
2024-01-20T13:04:01.074Z,-142.33
2024-01-20T13:06:28.259Z,-142.33
2024-01-20T13:08:55.404Z,-142.33
2024-01-20T13:11:22.572Z,-142.33
2024-01-20T13:13:49.617Z,-142.33
2024-01-20T13:16:16.910Z,-142.33
2024-01-20T13:18:44.190Z,-142.33
2024-01-20T13:21:11.354Z,-142.33
2024-01-20T13:23:38.589Z,-142.33
2024-01-20T13:26:05.649Z,-142.33
2024-01-20T13:28:32.768Z,-142.33
2024-01-20T13:30:59.931Z,-142.33
2024-01-20T13:33:28.121Z,-142.33
2024-01-20T13:35:55.231Z,-142.33
2024-01-20T13:38:22.309Z,-142.33
2024-01-20T13:40:50.198Z,-142.33
2024-01-20T13:43:17.371Z,-142.33
2024-01-20T13:45:44.546Z,-142.33
2024-01-20T13:48:11.781Z,-142.33
2024-01-20T13:50:38.966Z,-142.33
2024-01-20T13:53:06.095Z,-142.33
2024-01-20T13:55:33.176Z,-142.33
2024-01-20T13:58:00.249Z,-142.33
2024-01-20T14:00:27.387Z,-142.33
2024-01-20T14:02:54.881Z,-142.33
2024-01-20T14:05:22.517Z,-142.33
2024-01-20T14:07:50.129Z,-142.33
2024-01-20T14:10:17.601Z,-142.33
2024-01-20T14:12:44.725Z,-142.33
2024-01-20T14:15:12.011Z,-142.33
2024-01-20T14:17:39.190Z,-142.33
2024-01-20T14:20:06.774Z,-142.33
2024-01-20T14:22:33.785Z,-142.33
2024-01-20T14:25:02.140Z,-142.33
2024-01-20T14:27:30.387Z,-142.33
2024-01-20T14:29:57.473Z,-142.33
2024-01-20T14:32:24.560Z,-142.33
2024-01-20T14:34:51.640Z,-142.33
2024-01-20T14:37:18.805Z,-142.33
2024-01-20T14:39:45.958Z,-142.33
2024-01-20T14:42:13.056Z,-142.33
2024-01-20T14:44:40.239Z,-142.33
2024-01-20T14:47:07.369Z,-142.33
2024-01-20T14:49:34.484Z,-142.33
2024-01-20T14:52:01.631Z,-142.33
2024-01-20T14:54:28.741Z,-142.33
2024-01-20T14:56:55.908Z,-142.33
2024-01-20T14:59:22.987Z,-142.33
2024-01-20T15:01:50.014Z,-142.33
2024-01-20T15:04:17.355Z,-142.33
2024-01-20T15:06:44.531Z,-142.33
2024-01-20T15:09:11.676Z,-142.33
2024-01-20T15:11:56.788Z,-142.33
2024-01-20T15:14:24.830Z,-142.33
2024-01-20T15:16:52.024Z,-142.33
2024-01-20T15:19:19.351Z,-142.33
2024-01-20T15:21:46.684Z,-142.33
2024-01-20T15:24:13.798Z,-142.33
2024-01-20T15:26:40.915Z,-142.33
2024-01-20T15:29:08.010Z,-142.33
2024-01-20T15:31:35.128Z,-142.33
2024-01-20T15:34:02.406Z,-142.33
2024-01-20T15:36:29.658Z,-142.33
2024-01-20T15:38:56.840Z,-142.33
2024-01-20T15:41:24.039Z,-142.33
2024-01-20T15:43:51.142Z,-142.33
2024-01-20T15:46:18.189Z,-142.33
2024-01-20T15:48:45.458Z,-142.33
2024-01-20T15:51:12.810Z,-142.33
2024-01-20T15:53:39.953Z,-142.33
2024-01-20T15:56:07.378Z,-142.33
2024-01-20T15:58:34.444Z,-142.33
2024-01-20T16:01:01.658Z,-142.33
2024-01-20T16:03:28.825Z,-142.33
2024-01-20T16:05:55.981Z,-142.33
2024-01-20T16:08:23.050Z,-142.33
2024-01-20T16:10:50.482Z,-142.33
2024-01-20T16:13:17.599Z,-142.33
2024-01-20T16:15:44.753Z,-142.33
2024-01-20T16:18:12.058Z,-142.33
2024-01-20T16:20:39.254Z,-142.33
2024-01-20T16:23:06.572Z,-142.33
2024-01-20T16:25:33.710Z,-142.33
2024-01-20T16:28:00.814Z,-142.33
2024-01-20T16:30:27.925Z,-142.33
2024-01-20T16:32:55.074Z,-142.33
2024-01-20T16:35:22.172Z,-142.33
2024-01-20T16:37:49.352Z,-142.33
2024-01-20T16:40:16.492Z,-142.33
2024-01-20T16:42:43.713Z,-142.33
2024-01-20T16:45:10.857Z,-142.33
2024-01-20T16:47:38.036Z,-142.33
2024-01-20T16:50:05.478Z,-142.33
2024-01-20T16:52:32.702Z,-142.33
2024-01-20T16:55:13.889Z,-142.33
2024-01-20T16:57:42.960Z,-142.33
2024-01-20T17:00:11.947Z,-142.33
2024-01-20T17:02:39.119Z,-142.33
2024-01-20T17:05:06.535Z,-142.33
2024-01-20T17:07:33.678Z,-142.33
2024-01-20T17:10:00.804Z,-142.33
2024-01-20T17:12:27.894Z,-142.33
2024-01-20T17:14:54.976Z,-142.33
2024-01-20T17:17:22.958Z,-142.33
2024-01-20T17:19:50.123Z,-142.33
2024-01-20T17:22:17.300Z,-142.33
2024-01-20T17:24:44.499Z,-142.33
2024-01-20T17:27:11.580Z,-142.33
2024-01-20T17:29:38.699Z,-142.33
2024-01-20T17:32:05.832Z,-142.33
2024-01-20T17:34:33.438Z,-142.33
2024-01-20T17:37:01.181Z,-142.33
2024-01-20T17:39:28.627Z,-142.33
2024-01-20T17:41:56.131Z,-142.33
2024-01-20T17:44:23.303Z,-142.33
2024-01-20T17:46:50.447Z,-142.33
2024-01-20T17:49:17.722Z,-142.33
2024-01-20T17:51:44.983Z,-142.33
2024-01-20T17:54:12.104Z,-142.33
2024-01-20T17:56:39.434Z,-142.33
2024-01-20T17:59:06.908Z,-142.33
2024-01-20T18:01:37.125Z,-142.33
2024-01-20T18:04:04.683Z,-142.33
2024-01-20T18:06:32.110Z,-142.33
2024-01-20T18:08:59.264Z,-142.33
2024-01-20T18:11:26.362Z,-142.33
2024-01-20T18:13:53.412Z,-142.33
2024-01-20T18:16:20.481Z,-142.33
2024-01-20T18:18:47.655Z,-142.33
2024-01-20T18:21:15.661Z,-142.33
2024-01-20T18:23:42.781Z,-142.33
2024-01-20T18:26:10.060Z,-142.33
2024-01-20T18:28:37.229Z,-142.33
2024-01-20T18:31:04.388Z,-142.33
2024-01-20T18:33:31.612Z,-142.33
2024-01-20T18:35:58.753Z,-142.33
2024-01-20T18:38:25.870Z,-142.33
2024-01-20T18:40:53.003Z,-142.33
2024-01-20T18:43:20.118Z,-142.33
2024-01-20T18:45:47.291Z,-142.33
2024-01-20T18:48:14.509Z,-142.33
2024-01-20T18:50:42.083Z,-142.33
2024-01-20T18:53:11.717Z,-142.33
2024-01-20T18:55:38.842Z,-142.33
2024-01-20T18:58:05.975Z,-142.33
2024-01-20T19:00:33.129Z,-142.33
2024-01-20T19:03:01.752Z,-142.33
2024-01-20T19:05:28.879Z,-142.33
2024-01-20T19:07:56.172Z,-142.33
2024-01-20T19:10:23.312Z,-142.33
2024-01-20T19:12:50.994Z,-142.33
2024-01-20T19:15:18.148Z,-142.33
2024-01-20T19:17:48.493Z,-142.33
2024-01-20T19:20:15.831Z,-142.33
2024-01-20T19:22:42.937Z,-142.33
2024-01-20T19:25:09.990Z,-142.33
2024-01-20T19:27:37.151Z,-142.33
2024-01-20T19:30:04.430Z,-142.33
2024-01-20T19:32:31.547Z,-142.33
2024-01-20T19:34:58.621Z,-142.33
2024-01-20T19:37:25.683Z,-142.33
2024-01-20T19:39:52.854Z,-142.33
2024-01-20T19:42:19.994Z,-142.33
2024-01-20T19:44:47.148Z,-142.33
2024-01-20T19:47:14.345Z,-142.33
2024-01-20T19:49:59.447Z,-142.33
2024-01-20T19:52:26.652Z,-142.33
2024-01-20T19:54:53.740Z,-142.33
2024-01-20T19:57:20.977Z,-142.33
2024-01-20T19:59:48.048Z,-142.33
2024-01-20T20:02:15.108Z,-142.33
2024-01-20T20:04:42.452Z,-142.33
2024-01-20T20:07:09.558Z,-142.33
2024-01-20T20:09:37.354Z,-142.33
2024-01-20T20:12:05.518Z,-142.33
2024-01-20T20:14:34.467Z,-142.33
2024-01-20T20:17:01.524Z,-142.33
2024-01-20T20:19:28.593Z,-142.33
2024-01-20T20:21:55.685Z,-142.33
2024-01-20T20:24:22.802Z,-142.33
2024-01-20T20:26:50.019Z,-142.33
2024-01-20T20:29:17.183Z,-142.33
2024-01-20T20:31:44.255Z,-142.33
2024-01-20T20:34:11.589Z,-142.33
2024-01-20T20:36:38.957Z,-142.33
2024-01-20T20:39:06.372Z,-142.33
2024-01-20T20:41:33.960Z,-142.33
2024-01-20T20:44:01.083Z,-142.33
2024-01-20T20:46:28.208Z,-142.33
2024-01-20T20:48:55.443Z,-142.33
2024-01-20T20:51:22.733Z,-142.33
2024-01-20T20:53:49.814Z,-142.33
2024-01-20T20:56:16.867Z,-142.33
2024-01-20T20:58:44.331Z,-142.33
2024-01-20T21:01:11.614Z,-142.33
2024-01-20T21:03:39.096Z,-142.33
2024-01-20T21:06:06.429Z,-142.33
2024-01-20T21:08:33.490Z,-142.33
2024-01-20T21:11:00.674Z,-142.33
2024-01-20T21:13:27.783Z,-142.33
2024-01-20T21:15:54.869Z,-142.33
2024-01-20T21:18:22.264Z,-142.33
2024-01-20T21:20:49.404Z,-142.33
2024-01-20T21:23:16.457Z,-142.33
2024-01-20T21:25:43.447Z,-142.33
2024-01-20T21:28:10.422Z,-142.33
2024-01-20T21:30:37.507Z,-142.33
2024-01-20T21:33:04.771Z,-142.33
2024-01-20T21:35:31.928Z,-142.33
2024-01-20T21:37:59.039Z,-142.33
2024-01-20T21:40:26.275Z,-142.33
2024-01-20T21:42:53.346Z,-142.33
2024-01-20T21:45:20.642Z,-142.33
2024-01-20T21:47:47.760Z,-142.33
2024-01-20T21:50:14.909Z,-142.33
2024-01-20T21:52:42.932Z,-142.33
2024-01-20T21:55:10.153Z,-142.33
2024-01-20T21:57:37.300Z,-142.33
2024-01-20T22:00:04.506Z,-142.33
2024-01-20T22:02:31.500Z,-142.33
2024-01-20T22:04:58.607Z,-142.33
2024-01-20T22:07:25.749Z,-142.33
2024-01-20T22:09:52.928Z,-142.33
2024-01-20T22:12:20.144Z,-142.33
2024-01-20T22:14:47.289Z,-142.33
2024-01-20T22:17:14.388Z,-142.33
2024-01-20T22:19:41.610Z,-142.33
2024-01-20T22:22:08.587Z,-142.33
2024-01-20T22:24:35.682Z,-142.33
2024-01-20T22:27:02.792Z,-142.33
2024-01-20T22:29:31.985Z,-142.33
2024-01-20T22:31:59.642Z,-142.33
2024-01-20T22:34:26.648Z,-142.33
2024-01-20T22:36:53.836Z,-142.33
2024-01-20T22:39:20.935Z,-142.33
2024-01-20T22:41:48.136Z,-142.33
2024-01-20T22:44:15.161Z,-142.33
2024-01-20T22:46:42.184Z,-142.33
2024-01-20T22:49:10.041Z,-142.33
2024-01-20T22:51:37.223Z,-142.33
2024-01-20T22:54:04.308Z,-142.33
2024-01-20T22:56:31.387Z,-142.33
2024-01-20T22:58:58.453Z,-142.33
2024-01-20T23:01:25.662Z,-142.33
2024-01-20T23:03:53.022Z,-142.33
2024-01-20T23:06:20.329Z,-142.33
2024-01-20T23:08:47.454Z,-142.33
2024-01-20T23:11:14.583Z,-142.33
2024-01-20T23:13:41.562Z,-142.33
2024-01-20T23:16:08.568Z,-142.33
2024-01-20T23:18:35.883Z,-142.33
2024-01-20T23:21:02.902Z,-142.33
2024-01-20T23:23:29.958Z,-142.33
2024-01-20T23:25:59.019Z,-142.33
2024-01-20T23:28:26.031Z,-142.33
2024-01-20T23:30:53.356Z,-142.33
2024-01-20T23:33:20.561Z,-142.33
2024-01-20T23:35:47.706Z,-142.33
2024-01-20T23:38:14.923Z,-142.33
2024-01-20T23:40:42.011Z,-142.33
2024-01-20T23:43:09.100Z,-142.33
2024-01-20T23:45:36.213Z,-142.33
2024-01-20T23:48:03.415Z,-142.33
2024-01-20T23:50:30.461Z,-142.33
2024-01-20T23:52:57.504Z,-142.33
2024-01-20T23:55:24.511Z,-142.33
2024-01-20T23:57:51.560Z,-142.33
